Time;durP1;ratioP1;P1;durP2;ratioP2;P2;SDS_P1;SDS_P2;PMS_P1;PMS_P2;Temp;Humidity;BMP_temperature;BMP_pressure;BME280_temperature;BME280_humidity;BME280_pressure;Samples;Min_cycle;Max_cycle;Signal;HPM_P1;HPM_P2
2020/12/17 00:00:03;;;;;;;9.77;6.87;;;;;;;8.51;100.00;101000.83;1774954;78;934798;-73
2020/12/17 00:02:34;;;;;;;9.30;6.90;;;;;;;8.42;100.00;100993.29;1786606;78;934660;-73
2020/12/17 00:05:04;;;;;;;11.88;6.37;;;;;;;8.37;100.00;101003.78;1774645;78;934637;-73
2020/12/17 00:07:34;;;;;;;9.93;6.23;;;;;;;8.40;100.00;101000.47;1786423;79;936726;-73
2020/12/17 00:10:05;;;;;;;9.28;7.05;;;;;;;8.40;100.00;101009.31;1774739;78;934622;-73
2020/12/17 00:12:39;;;;;;;9.87;7.53;;;;;;;8.39;100.00;101013.17;1786476;78;934648;-73
2020/12/17 00:15:13;;;;;;;10.55;7.45;;;;;;;8.44;100.00;101017.37;1774759;78;934643;-74
2020/12/17 00:17:45;;;;;;;10.27;7.87;;;;;;;8.27;100.00;101010.59;1786600;78;934942;-74
2020/12/17 00:20:16;;;;;;;13.38;8.20;;;;;;;8.37;100.00;101020.39;1775136;79;936904;-73
2020/12/17 00:22:46;;;;;;;11.43;8.23;;;;;;;8.23;100.00;101014.44;1786560;78;934785;-73
2020/12/17 00:25:18;;;;;;;10.37;7.87;;;;;;;8.18;100.00;101018.55;1775090;78;936824;-73
2020/12/17 00:27:48;;;;;;;13.73;8.57;;;;;;;8.20;100.00;101020.52;1786745;79;934930;-73
2020/12/17 00:30:19;;;;;;;11.17;7.97;;;;;;;8.22;100.00;101021.61;1774782;78;936760;-73
2020/12/17 00:32:49;;;;;;;11.63;7.93;;;;;;;8.24;100.00;101020.27;1786582;78;934621;-73
2020/12/17 00:35:19;;;;;;;11.53;7.67;;;;;;;8.20;100.00;101023.28;1774813;78;935891;-73
2020/12/17 00:37:48;;;;;;;11.37;8.80;;;;;;;8.26;100.00;101023.33;1786247;79;934806;-73
2020/12/17 00:40:18;;;;;;;10.53;7.00;;;;;;;8.25;100.00;101029.41;1774841;78;936760;-73
2020/12/17 00:42:49;;;;;;;12.33;7.50;;;;;;;8.38;100.00;101033.67;1786603;78;934778;-73
2020/12/17 00:45:19;;;;;;;11.43;7.13;;;;;;;8.33;100.00;101033.09;1774798;78;936664;-73
2020/12/17 00:47:48;;;;;;;8.83;7.10;;;;;;;8.39;100.00;101037.55;1786523;78;934837;-73
2020/12/17 00:50:18;;;;;;;13.07;7.00;;;;;;;8.45;100.00;101038.42;1774847;78;934702;-73
2020/12/17 00:52:48;;;;;;;12.00;7.47;;;;;;;8.32;100.00;101032.80;1786455;79;935089;-73
2020/12/17 00:55:18;;;;;;;12.43;6.70;;;;;;;8.35;100.00;101032.80;1774588;78;936790;-73
2020/12/17 00:57:49;;;;;;;10.30;6.63;;;;;;;8.36;100.00;101035.31;1786572;78;935008;-73
2020/12/17 01:00:18;;;;;;;11.67;6.97;;;;;;;8.38;100.00;101041.98;1774889;78;936767;-73
2020/12/17 01:02:48;;;;;;;11.00;7.13;;;;;;;8.37;100.00;101038.92;1786679;78;934965;-73
2020/12/17 01:05:18;;;;;;;10.47;7.33;;;;;;;8.46;100.00;101040.09;1774477;79;937096;-74
2020/12/17 01:07:48;;;;;;;8.40;6.57;;;;;;;8.21;100.00;101040.72;1786630;78;935023;-73
2020/12/17 01:10:18;;;;;;;9.83;6.50;;;;;;;8.32;100.00;101039.72;1774840;79;934662;-73
2020/12/17 01:12:48;;;;;;;11.13;6.10;;;;;;;8.23;100.00;101045.42;1786480;78;932709;-73
2020/12/17 01:15:18;;;;;;;10.27;6.30;;;;;;;8.23;100.00;101048.19;1774764;79;936803;-73
2020/12/17 01:17:47;;;;;;;9.33;5.97;;;;;;;8.24;100.00;101039.64;1786295;78;934632;-73
2020/12/17 01:20:17;;;;;;;9.33;6.13;;;;;;;8.15;100.00;101043.98;1799153;78;934589;-73
2020/12/17 01:22:47;;;;;;;9.67;5.63;;;;;;;8.12;100.00;101050.05;1810676;78;932644;-73
2020/12/17 01:25:17;;;;;;;10.63;5.37;;;;;;;8.13;100.00;101047.55;1798703;78;933319;-72
2020/12/17 01:27:47;;;;;;;11.13;5.70;;;;;;;8.30;100.00;101047.44;1811660;78;934777;-72
2020/12/17 01:30:17;;;;;;;6.93;4.57;;;;;;;8.46;100.00;101053.94;1799220;78;936948;-72
2020/12/17 01:32:47;;;;;;;10.87;4.33;;;;;;;8.65;100.00;101059.31;1810692;77;932666;-73
2020/12/17 01:35:16;;;;;;;8.27;4.37;;;;;;;8.76;100.00;101063.83;1798996;78;936597;-73
2020/12/17 01:37:46;;;;;;;11.93;4.20;;;;;;;8.70;100.00;101066.27;1810451;78;932657;-73
2020/12/17 01:40:16;;;;;;;7.90;3.80;;;;;;;8.74;100.00;101064.63;1798850;78;936722;-73
2020/12/17 01:42:46;;;;;;;8.47;3.50;;;;;;;8.67;100.00;101069.58;1810867;78;932819;-73
2020/12/17 01:45:16;;;;;;;8.45;3.67;;;;;;;8.64;100.00;101070.13;1800665;78;934644;-73
2020/12/17 01:47:48;;;;;;;9.63;3.10;;;;;;;8.58;100.00;101072.56;1811626;78;932771;-73
2020/12/17 01:50:18;;;;;;;10.53;3.50;;;;;;;8.68;100.00;101068.48;1800773;78;934696;-73
2020/12/17 01:52:48;;;;;;;9.18;3.40;;;;;;;8.55;100.00;101068.41;1809893;78;934752;-73
2020/12/17 01:55:19;;;;;;;11.73;3.60;;;;;;;8.47;100.00;101077.76;1798762;78;934650;-73
2020/12/17 01:57:50;;;;;;;10.23;3.40;;;;;;;8.54;100.00;101086.66;1811527;78;934854;-73
2020/12/17 02:00:22;;;;;;;9.17;3.13;;;;;;;8.29;100.00;101090.59;1799142;78;936778;-72
2020/12/17 02:02:52;;;;;;;7.62;3.08;;;;;;;8.36;100.00;101088.45;1811783;78;932677;-73
2020/12/17 02:05:22;;;;;;;10.63;3.20;;;;;;;8.10;100.00;101092.36;1800227;78;934796;-73
2020/12/17 02:07:52;;;;;;;6.77;3.30;;;;;;;7.96;100.00;101093.88;1810792;78;934797;-73
2020/12/17 02:10:22;;;;;;;10.60;3.07;;;;;;;8.00;100.00;101100.55;1798029;78;934770;-73
2020/12/17 02:12:52;;;;;;;9.50;3.17;;;;;;;8.06;100.00;101102.83;1810731;78;934638;-73
2020/12/17 02:15:23;;;;;;;12.33;3.20;;;;;;;8.05;100.00;101107.52;1799472;78;934720;-72
2020/12/17 02:17:52;;;;;;;8.73;3.37;;;;;;;8.18;100.00;101116.77;1811874;78;934827;-73
2020/12/17 02:20:23;;;;;;;6.17;2.23;;;;;;;8.02;100.00;101116.35;1811666;78;934825;-73
2020/12/17 02:22:53;;;;;;;7.63;2.67;;;;;;;8.02;100.00;101112.75;1810952;78;932872;-72
2020/12/17 02:25:23;;;;;;;8.83;2.73;;;;;;;8.09;100.00;101123.04;1811639;78;934641;-72
2020/12/17 02:27:53;;;;;;;3.83;1.97;;;;;;;7.97;100.00;101119.06;1810956;78;932669;-72
2020/12/17 02:30:23;;;;;;;8.07;2.57;;;;;;;7.91;100.00;101128.42;1811392;78;934649;-73
2020/12/17 02:32:52;;;;;;;6.40;2.30;;;;;;;7.90;100.00;101131.44;1811523;78;932674;-73
2020/12/17 02:35:22;;;;;;;8.23;2.07;;;;;;;7.86;100.00;101128.36;1811269;78;934595;-73
2020/12/17 02:37:52;;;;;;;9.63;2.10;;;;;;;7.65;100.00;101130.62;1811474;76;932594;-73
2020/12/17 02:40:22;;;;;;;4.87;2.30;;;;;;;7.55;100.00;101131.87;1798565;78;942991;-73
2020/12/17 02:42:52;;;;;;;5.50;1.80;;;;;;;7.62;100.00;101129.19;1811401;78;932660;-73
2020/12/17 02:45:21;;;;;;;8.37;2.20;;;;;;;7.61;100.00;101130.85;1799539;78;934600;-73
2020/12/17 02:47:51;;;;;;;7.20;2.33;;;;;;;7.52;100.00;101134.63;1810604;77;932674;-73
2020/12/17 02:50:21;;;;;;;4.07;1.77;;;;;;;7.47;100.00;101137.31;1798936;78;934764;-73
2020/12/17 02:52:51;;;;;;;6.03;1.80;;;;;;;7.29;100.00;101141.23;1811027;77;932665;-73
2020/12/17 02:55:21;;;;;;;7.47;1.90;;;;;;;7.19;100.00;101149.37;1799370;78;934647;-73
2020/12/17 02:57:51;;;;;;;5.27;1.87;;;;;;;7.19;100.00;101152.14;1810830;77;932684;-72
2020/12/17 03:00:21;;;;;;;7.17;1.80;;;;;;;6.95;100.00;101150.70;1800272;78;934635;-72
2020/12/17 03:02:50;;;;;;;4.67;1.90;;;;;;;7.12;100.00;101153.42;1811810;77;932735;-73
2020/12/17 03:05:20;;;;;;;5.33;1.80;;;;;;;7.32;100.00;101152.30;1798774;78;934629;-73
2020/12/17 03:07:50;;;;;;;5.33;1.60;;;;;;;7.44;100.00;101151.66;1812284;78;932727;-73
2020/12/17 03:10:22;;;;;;;7.43;2.20;;;;;;;7.42;100.00;101151.61;1800682;78;934664;-73
2020/12/17 03:12:52;;;;;;;4.13;1.63;;;;;;;7.42;100.00;101154.38;1811278;78;932709;-73
2020/12/17 03:15:22;;;;;;;7.83;1.73;;;;;;;7.39;100.00;101165.41;1810942;76;934616;-73
2020/12/17 03:17:52;;;;;;;9.27;2.17;;;;;;;7.11;100.00;101161.41;1811552;78;932750;-73
2020/12/17 03:20:22;;;;;;;5.97;2.03;;;;;;;7.15;100.00;101164.79;1800042;78;934718;-73
2020/12/17 03:22:52;;;;;;;4.20;1.90;;;;;;;7.14;100.00;101174.73;1810289;78;932633;-72
2020/12/17 03:25:22;;;;;;;4.93;2.30;;;;;;;7.03;100.00;101175.66;1811131;78;934606;-72
2020/12/17 03:27:52;;;;;;;4.37;2.40;;;;;;;7.29;100.00;101177.70;1811547;78;932775;-72
2020/12/17 03:30:22;;;;;;;7.87;2.27;;;;;;;7.19;100.00;101178.38;1800763;77;934615;-72
2020/12/17 03:32:51;;;;;;;3.70;1.77;;;;;;;7.18;100.00;101178.11;1811503;78;932679;-73
2020/12/17 03:35:21;;;;;;;6.53;2.07;;;;;;;7.09;100.00;101187.09;1798502;78;934644;-73
2020/12/17 03:37:51;;;;;;;6.97;1.70;;;;;;;6.98;100.00;101190.23;1811491;78;932730;-73
2020/12/17 03:40:22;;;;;;;5.15;2.00;;;;;;;6.80;100.00;101201.56;1798812;78;934728;-73
2020/12/17 03:42:52;;;;;;;4.45;1.77;;;;;;;6.86;100.00;101208.28;1811137;78;932915;-72
2020/12/17 03:45:23;;;;;;;7.00;2.13;;;;;;;7.02;100.00;101207.95;1811226;78;935087;-72
2020/12/17 03:47:52;;;;;;;5.07;1.80;;;;;;;7.24;100.00;101213.53;1764859;79;932771;-72
2020/12/17 03:50:22;;;;;;;3.97;1.60;;;;;;;7.18;100.00;101206.28;1786815;78;934698;-72
2020/12/17 03:52:52;;;;;;;8.70;1.93;;;;;;;7.36;100.00;101205.16;1786658;78;932652;-72
2020/12/17 03:55:22;;;;;;;5.83;1.47;;;;;;;7.45;100.00;101204.98;1774851;78;934656;-73
2020/12/17 03:57:52;;;;;;;7.93;1.63;;;;;;;7.53;100.00;101208.70;1786328;78;932737;-72
2020/12/17 04:00:21;;;;;;;6.57;2.40;;;;;;;7.75;100.00;101208.14;1774757;78;934637;-72
2020/12/17 04:02:51;;;;;;;5.03;1.60;;;;;;;7.85;100.00;101201.90;1786762;78;932748;-72
2020/12/17 04:05:21;;;;;;;8.17;1.60;;;;;;;7.86;100.00;101200.81;1774698;78;934960;-72
2020/12/17 04:07:51;;;;;;;6.90;1.60;;;;;;;7.81;100.00;101200.75;1786337;78;932736;-72
2020/12/17 04:10:20;;;;;;;6.90;1.50;;;;;;;7.83;100.00;101200.77;1774857;78;934807;-72
2020/12/17 04:12:51;;;;;;;4.17;1.43;;;;;;;7.60;100.00;101197.73;1786160;79;932687;-73
2020/12/17 04:15:20;;;;;;;5.43;1.47;;;;;;;7.65;100.00;101201.95;1775010;78;934671;-72
2020/12/17 04:17:50;;;;;;;6.50;1.50;;;;;;;7.61;100.00;101201.34;1786760;79;932865;-72
2020/12/17 04:20:20;;;;;;;5.37;1.40;;;;;;;7.68;100.00;101205.58;1774967;78;934657;-72
2020/12/17 04:22:50;;;;;;;3.97;1.90;;;;;;;7.68;100.00;101209.73;1786266;79;932728;-73
2020/12/17 04:25:20;;;;;;;3.73;1.30;;;;;;;7.72;100.00;101212.27;1774912;78;934841;-73
2020/12/17 04:27:50;;;;;;;3.53;1.50;;;;;;;7.73;100.00;101207.03;1786812;78;932943;-73
2020/12/17 04:30:20;;;;;;;4.03;1.20;;;;;;;7.71;100.00;101207.82;1774753;79;934720;-73
2020/12/17 04:32:49;;;;;;;5.20;1.63;;;;;;;7.67;100.00;101212.73;1786584;78;932656;-73
2020/12/17 04:35:20;;;;;;;4.03;1.30;;;;;;;7.61;100.00;101213.78;1774484;78;934826;-73
2020/12/17 04:37:50;;;;;;;4.30;1.37;;;;;;;7.68;100.00;101219.95;1786842;78;932683;-73
2020/12/17 04:40:19;;;;;;;7.93;1.50;;;;;;;7.53;100.00;101220.58;1774415;78;934862;-73
2020/12/17 04:42:50;;;;;;;9.60;1.53;;;;;;;7.67;100.00;101227.41;1811070;78;932751;-73
2020/12/17 04:45:21;;;;;;;5.97;1.30;;;;;;;7.66;100.00;101227.11;1798636;77;934609;-73
2020/12/17 04:47:52;;;;;;;6.30;1.60;;;;;;;7.67;100.00;101232.94;1810869;78;932693;-72
2020/12/17 04:50:25;;;;;;;5.87;1.70;;;;;;;7.50;100.00;101232.15;1797819;78;1009929;-72
2020/12/17 04:52:57;;;;;;;5.30;1.37;;;;;;;7.26;100.00;101226.02;1811133;78;934724;-72
2020/12/17 04:55:28;;;;;;;3.63;1.30;;;;;;;7.26;100.00;101232.93;1810511;77;934633;-72
2020/12/17 04:58:01;;;;;;;4.80;1.45;;;;;;;7.28;100.00;101234.88;1799757;78;935073;-73
2020/12/17 05:00:31;;;;;;;3.70;1.03;;;;;;;7.18;100.00;101229.22;1798835;78;934713;-73
2020/12/17 05:03:03;;;;;;;4.60;1.50;;;;;;;7.33;100.00;101233.58;1799993;78;934578;-72
2020/12/17 05:05:33;;;;;;;5.77;1.50;;;;;;;7.33;100.00;101239.64;1786587;79;934695;-73
2020/12/17 05:08:03;;;;;;;6.03;1.27;;;;;;;7.32;100.00;101242.11;1775277;78;934476;-72
2020/12/17 05:10:33;;;;;;;4.50;1.40;;;;;;;7.41;100.00;101243.89;1786759;78;934788;-73
2020/12/17 05:13:02;;;;;;;6.42;1.25;;;;;;;7.47;100.00;101252.02;1774709;78;944745;-73
2020/12/17 05:15:33;;;;;;;5.33;1.47;;;;;;;7.45;100.00;101254.73;1786683;78;934656;-73
2020/12/17 05:18:02;;;;;;;4.70;1.25;;;;;;;7.38;100.00;101256.30;1774694;78;934546;-72
2020/12/17 05:20:32;;;;;;;5.57;1.60;;;;;;;7.30;100.00;101261.73;1786463;78;934861;-72
2020/12/17 05:23:04;;;;;;;5.70;1.60;;;;;;;7.24;100.00;101268.25;1774966;78;935048;-72
2020/12/17 05:25:34;;;;;;;7.43;1.47;;;;;;;7.17;100.00;101268.98;1786825;78;934700;-72
2020/12/17 05:28:05;;;;;;;6.08;1.62;;;;;;;7.09;100.00;101269.41;1774931;78;934765;-72
2020/12/17 05:30:36;;;;;;;4.80;1.30;;;;;;;7.18;100.00;101274.81;1811160;78;934608;-72
2020/12/17 05:33:06;;;;;;;6.50;1.53;;;;;;;7.17;100.00;101277.27;1799714;78;934721;-72
2020/12/17 05:35:38;;;;;;;3.63;1.30;;;;;;;7.02;100.00;101281.69;1811396;77;934592;-72
2020/12/17 05:38:10;;;;;;;4.08;1.20;;;;;;;7.03;100.00;101281.45;1798679;78;934560;-75
2020/12/17 05:40:42;;;;;;;4.97;1.30;;;;;;;7.07;100.00;101288.69;1811951;78;934556;-75
2020/12/17 05:43:12;;;;;;;7.63;1.30;;;;;;;6.99;100.00;101291.33;1800180;78;934611;-75
2020/12/17 05:45:42;;;;;;;4.23;1.30;;;;;;;6.94;100.00;101299.52;1811976;78;934561;-74
2020/12/17 05:48:13;;;;;;;2.17;1.10;;;;;;;6.82;100.00;101302.91;1799783;78;934680;-75
2020/12/17 05:51:00;;;;;;;4.17;1.43;;;;;;;7.04;100.00;101300.25;1810597;78;932941;-75
2020/12/17 05:53:32;;;;;;;4.67;1.23;;;;;;;6.91;100.00;101298.66;1811726;78;934600;-75
2020/12/17 05:56:04;;;;;;;7.80;1.23;;;;;;;7.01;100.00;101307.13;1798891;78;933508;-74
2020/12/17 05:58:41;;;;;;;4.53;1.30;;;;;;;6.97;100.00;101310.09;1810601;78;934640;-74
2020/12/17 06:01:13;;;;;;;3.37;1.30;;;;;;;7.00;100.00;101310.96;1799100;78;934615;-73
2020/12/17 06:03:45;;;;;;;4.13;1.20;;;;;;;6.89;100.00;101317.38;1810845;78;932694;-73
2020/12/17 06:06:15;;;;;;;4.60;1.30;;;;;;;6.98;100.00;101315.05;1799108;78;934428;-73
2020/12/17 06:08:46;;;;;;;2.93;1.50;;;;;;;6.88;100.00;101319.88;1810954;78;932655;-73
2020/12/17 06:11:17;;;;;;;5.70;1.05;;;;;;;6.91;100.00;101309.70;1774780;78;934780;-74
2020/12/17 06:13:48;;;;;;;5.27;1.43;;;;;;;7.04;100.00;101313.52;1786608;78;932744;-74
2020/12/17 06:16:19;;;;;;;6.57;1.57;;;;;;;7.09;100.00;101321.89;1774888;78;934827;-74
2020/12/17 06:18:51;;;;;;;4.23;1.53;;;;;;;6.92;100.00;101329.33;1786460;78;932693;-74
2020/12/17 06:21:23;;;;;;;3.43;1.50;;;;;;;7.07;100.00;101327.36;1774470;78;934605;-74
2020/12/17 06:23:58;;;;;;;4.63;1.40;;;;;;;6.93;100.00;101332.36;1785946;78;932684;-74
2020/12/17 06:26:28;;;;;;;3.73;1.30;;;;;;;6.99;100.00;101341.05;1786606;78;934696;-73
2020/12/17 06:29:01;;;;;;;7.00;1.60;;;;;;;6.83;100.00;101346.01;1776140;78;934693;-73
2020/12/17 06:31:33;;;;;;;7.93;1.90;;;;;;;6.67;100.00;101335.77;1775893;78;934705;-74
2020/12/17 06:34:06;;;;;;;5.00;1.70;;;;;;;6.71;100.00;101357.12;1774642;78;934689;-74
2020/12/17 06:36:39;;;;;;;7.93;1.93;;;;;;;6.72;100.00;101359.31;1785958;78;934618;-74
2020/12/17 06:39:10;;;;;;;7.00;2.00;;;;;;;6.69;100.00;101358.43;1799254;78;934637;-74
2020/12/17 06:41:39;;;;;;;5.40;1.93;;;;;;;6.83;100.00;101363.41;1810876;78;934626;-74
2020/12/17 06:44:30;;;;;;;7.17;1.75;;;;;;;6.61;100.00;101366.58;1799464;78;934739;-74
2020/12/17 06:47:02;;;;;;;4.90;1.70;;;;;;;6.63;100.00;101360.25;1798665;78;934654;-74
2020/12/17 06:49:33;;;;;;;4.33;1.80;;;;;;;6.71;100.00;101370.08;1810714;78;934634;-73
2020/12/17 06:52:06;;;;;;;5.10;1.40;;;;;;;6.67;100.00;101371.66;1800308;78;934719;-74
2020/12/17 06:54:38;;;;;;;7.43;1.50;;;;;;;6.73;100.00;101374.26;1812501;78;934875;-74
2020/12/17 06:57:09;;;;;;;7.00;1.47;;;;;;;6.79;100.00;101371.06;1799744;78;934921;-74
2020/12/17 06:59:40;;;;;;;5.23;1.67;;;;;;;6.86;100.00;101375.34;1812355;78;934728;-74
2020/12/17 07:02:11;;;;;;;5.08;1.90;;;;;;;6.91;100.00;101381.50;1799003;77;934836;-75
2020/12/17 07:04:42;;;;;;;5.87;1.53;;;;;;;6.93;100.00;101377.92;1811253;78;934698;-74
2020/12/17 07:07:18;;;;;;;7.65;2.60;;;;;;;6.96;100.00;101386.28;1799545;78;934829;-74
2020/12/17 07:09:51;;;;;;;9.13;2.30;;;;;;;6.93;100.00;101386.21;1811694;78;933028;-74
2020/12/17 07:12:43;;;;;;;11.37;2.00;;;;;;;6.90;100.00;101364.63;1799705;78;934660;-75
2020/12/17 07:15:34;;;;;;;7.05;1.90;;;;;;;7.08;100.00;101391.19;1799654;78;936662;-76
2020/12/17 07:18:23;;;;;;;5.83;1.75;;;;;;;7.01;100.00;101395.50;1799371;78;934750;-74
2020/12/17 07:20:56;;;;;;;6.87;2.10;;;;;;;6.94;100.00;101409.14;1812069;77;932801;-73
2020/12/17 07:23:28;;;;;;;5.43;2.17;;;;;;;7.01;100.00;101408.47;1810366;78;934673;-73
2020/12/17 07:26:00;;;;;;;4.63;2.20;;;;;;;7.01;100.00;101416.22;1799382;78;934621;-72
2020/12/17 07:28:30;;;;;;;6.73;1.87;;;;;;;6.99;100.00;101419.76;1810519;78;934670;-74
2020/12/17 07:30:59;;;;;;;5.63;2.23;;;;;;;6.94;100.00;101413.29;1798738;78;934875;-75
2020/12/17 07:33:46;;;;;;;5.30;2.10;;;;;;;6.96;100.00;101420.80;1811140;78;934622;-73
2020/12/17 07:36:16;;;;;;;10.15;2.12;;;;;;;7.03;100.00;101434.75;1799473;78;934723;-74
2020/12/17 07:38:46;;;;;;;7.33;2.20;;;;;;;7.01;100.00;101434.72;1811294;78;935254;-74
2020/12/17 07:41:25;;;;;;;7.80;1.80;;;;;;;7.10;100.00;101438.75;1799633;78;933555;-73
2020/12/17 07:43:55;;;;;;;7.10;2.67;;;;;;;7.07;100.00;101444.75;1811237;77;932631;-75
2020/12/17 07:46:40;;;;;;;6.17;2.13;;;;;;;6.84;100.00;101446.56;1810894;77;934656;-76
2020/12/17 07:49:24;;;;;;;9.45;2.22;;;;;;;7.08;100.00;101450.04;1800370;76;934719;-76
2020/12/17 07:51:54;;;;;;;8.43;2.20;;;;;;;7.14;100.00;101450.98;1810531;77;932645;-76
2020/12/17 07:54:25;;;;;;;7.40;2.23;;;;;;;6.99;100.00;101452.90;1811884;77;934646;-75
2020/12/17 07:57:01;;;;;;;9.80;2.10;;;;;;;7.00;100.00;101453.74;1810968;78;933022;-75
2020/12/17 07:59:31;;;;;;;6.57;1.77;;;;;;;6.99;100.00;101460.34;1809719;78;934636;-74
2020/12/17 08:02:03;;;;;;;8.05;1.80;;;;;;;6.87;100.00;101467.30;1798115;77;934537;-76
2020/12/17 08:04:33;;;;;;;8.53;2.57;;;;;;;6.99;100.00;101472.77;1811040;77;934648;-76
2020/12/17 08:07:08;;;;;;;7.87;2.02;;;;;;;7.01;100.00;101474.77;1799605;78;934595;-75
2020/12/17 08:09:38;;;;;;;8.03;2.13;;;;;;;7.17;100.00;101475.34;1811437;78;934819;-75
2020/12/17 08:12:11;;;;;;;4.65;2.22;;;;;;;7.01;100.00;101478.91;1800248;78;936463;-76
2020/12/17 08:14:41;;;;;;;6.60;1.73;;;;;;;7.13;100.00;101479.15;1812066;76;934810;-75
2020/12/17 08:17:11;;;;;;;10.75;2.10;;;;;;;7.08;100.00;101476.28;1799441;77;934607;-78
2020/12/17 08:19:41;;;;;;;7.87;2.10;;;;;;;7.07;100.00;101478.73;1811854;77;936939;-75
2020/12/17 08:22:11;;;;;;;4.70;1.70;;;;;;;6.99;100.00;101487.42;1798705;78;934769;-79
2020/12/17 08:24:41;;;;;;;6.07;1.97;;;;;;;7.15;100.00;101491.31;1810337;78;934631;-77
2020/12/17 08:27:12;;;;;;;5.67;2.05;;;;;;;7.08;100.00;101493.39;1798973;78;934983;-78
2020/12/17 08:29:42;;;;;;;6.47;1.93;;;;;;;7.14;100.00;101500.17;1809753;78;934678;-78
2020/12/17 08:32:12;;;;;;;9.60;2.10;;;;;;;7.01;100.00;101503.22;1799195;78;934609;-77
2020/12/17 08:34:53;;;;;;;7.97;2.60;;;;;;;7.11;100.00;101508.09;1810530;77;934580;-76
2020/12/17 08:37:23;;;;;;;10.90;2.70;;;;;;;7.02;100.00;101506.80;1811447;77;934662;-76
2020/12/17 08:40:01;;;;;;;6.23;2.17;;;;;;;6.95;100.00;101508.88;1810875;78;934824;-75
2020/12/17 08:42:34;;;;;;;7.33;2.07;;;;;;;7.19;100.00;101512.67;1810948;78;934617;-76
2020/12/17 08:45:07;;;;;;;7.73;2.73;;;;;;;7.19;100.00;101512.67;1799203;77;935354;-77
2020/12/17 08:47:39;;;;;;;6.33;2.00;;;;;;;7.34;100.00;101524.58;1810738;77;934645;-77
2020/12/17 08:50:11;;;;;;;9.80;2.45;;;;;;;7.23;100.00;101526.86;1775014;79;934717;-77
2020/12/17 08:52:42;;;;;;;10.07;3.17;;;;;;;7.34;100.00;101521.81;1786550;78;934731;-77
2020/12/17 08:55:12;;;;;;;10.43;2.77;;;;;;;7.42;100.00;101524.17;1774728;78;936907;-77
2020/12/17 08:57:42;;;;;;;7.30;2.93;;;;;;;7.48;100.00;101526.50;1786284;78;936758;-76
2020/12/17 09:00:18;;;;;;;7.00;2.77;;;;;;;7.55;100.00;101528.55;1775441;78;934542;-76
2020/12/17 09:02:49;;;;;;;6.90;2.87;;;;;;;7.48;100.00;101534.25;1786578;78;932524;-77
2020/12/17 09:05:19;;;;;;;8.63;2.33;;;;;;;7.51;100.00;101538.44;1774806;78;934729;-77
2020/12/17 09:07:53;;;;;;;11.20;2.73;;;;;;;7.49;100.00;101544.20;1786689;78;932708;-77
2020/12/17 09:10:23;;;;;;;7.80;2.50;;;;;;;7.64;100.00;101542.27;1811870;78;936842;-78
2020/12/17 09:12:57;;;;;;;6.80;2.20;;;;;;;7.69;100.00;101556.20;1810878;78;932979;-77
2020/12/17 09:15:29;;;;;;;8.63;3.00;;;;;;;7.75;100.00;101551.87;1811307;78;934767;-76
2020/12/17 09:18:10;;;;;;;7.07;2.20;;;;;;;7.79;100.00;101563.27;1800197;77;934580;-75
2020/12/17 09:20:39;;;;;;;9.97;2.67;;;;;;;7.82;100.00;101571.63;1811216;78;934685;-76
2020/12/17 09:23:10;;;;;;;9.55;2.35;;;;;;;7.82;100.00;101573.02;1799677;78;934692;-76
2020/12/17 09:25:40;;;;;;;9.07;2.50;;;;;;;7.76;100.00;101574.84;1811544;78;934649;-76
2020/12/17 09:28:22;;;;;;;8.93;2.90;;;;;;;7.95;100.00;101569.39;1798778;78;934572;-75
2020/12/17 09:30:52;;;;;;;7.70;2.73;;;;;;;7.89;100.00;101576.45;1811730;78;932843;-77
2020/12/17 09:33:21;;;;;;;6.17;2.40;;;;;;;7.91;100.00;101584.81;1799400;78;934762;-77
2020/12/17 09:35:51;;;;;;;7.87;2.50;;;;;;;8.03;100.00;101586.11;1810367;78;932633;-77
2020/12/17 09:38:22;;;;;;;7.30;3.00;;;;;;;7.96;100.00;101588.21;1799406;78;934683;-77
2020/12/17 09:40:55;;;;;;;13.80;3.07;;;;;;;7.99;100.00;101601.53;1810578;78;932791;-77
2020/12/17 09:43:25;;;;;;;10.57;2.77;;;;;;;8.11;100.00;101607.83;1811934;77;936715;-77
2020/12/17 09:45:57;;;;;;;8.80;2.80;;;;;;;8.12;100.00;101606.75;1810156;78;934958;-77
2020/12/17 09:48:29;;;;;;;7.37;2.37;;;;;;;8.04;100.00;101608.55;1786712;79;934625;-77
2020/12/17 09:51:01;;;;;;;7.43;2.63;;;;;;;8.07;100.00;101609.42;1775064;78;934779;-76
2020/12/17 09:53:33;;;;;;;8.50;1.97;;;;;;;8.17;100.00;101611.80;1786397;78;934677;-76
2020/12/17 09:56:03;;;;;;;8.35;2.12;;;;;;;8.24;100.00;101616.65;1774663;78;934511;-76
2020/12/17 09:58:33;;;;;;;8.07;2.10;;;;;;;8.38;100.00;101626.04;1786732;78;934725;-76
2020/12/17 10:01:03;;;;;;;5.85;2.17;;;;;;;8.28;100.00;101629.44;1800071;78;934659;-76
2020/12/17 10:03:33;;;;;;;13.37;2.40;;;;;;;8.32;100.00;101630.64;1810673;78;934669;-77
2020/12/17 10:06:03;;;;;;;8.70;2.40;;;;;;;8.37;100.00;101630.73;1799917;78;936675;-77
2020/12/17 10:08:33;;;;;;;12.57;2.43;;;;;;;8.38;100.00;101634.34;1810898;78;934622;-77
2020/12/17 10:11:03;;;;;;;7.87;2.20;;;;;;;8.46;100.00;101635.30;1799505;77;937191;-77
2020/12/17 10:13:33;;;;;;;4.07;1.70;;;;;;;8.52;100.00;101645.34;1812555;77;935037;-76
2020/12/17 10:16:03;;;;;;;10.00;2.23;;;;;;;8.50;100.00;101645.62;1799418;78;934656;-76
2020/12/17 10:18:33;;;;;;;8.40;2.07;;;;;;;8.52;100.00;101653.11;1810855;78;936697;-77
2020/12/17 10:21:02;;;;;;;7.47;2.15;;;;;;;8.66;100.00;101651.69;1800091;78;934749;-77
2020/12/17 10:23:32;;;;;;;8.27;1.97;;;;;;;8.80;100.00;101656.88;1811577;78;934634;-76
2020/12/17 10:26:02;;;;;;;9.25;2.58;;;;;;;8.86;100.00;101663.63;1799711;78;934567;-76
2020/12/17 10:28:32;;;;;;;7.17;1.67;;;;;;;8.75;100.00;101670.66;1811245;78;934673;-76
2020/12/17 10:31:02;;;;;;;11.60;1.95;;;;;;;8.75;100.00;101676.19;1799546;78;934512;-76
2020/12/17 10:33:32;;;;;;;6.93;1.93;;;;;;;8.84;100.00;101674.13;1810224;77;935430;-77
2020/12/17 10:36:01;;;;;;;8.07;1.93;;;;;;;8.88;100.00;101671.14;1799477;78;934455;-77
2020/12/17 10:38:31;;;;;;;7.67;1.73;;;;;;;8.91;100.00;101675.33;1811551;78;934591;-78
2020/12/17 10:41:01;;;;;;;6.67;2.20;;;;;;;8.95;100.00;101670.41;1799543;78;934611;-77
2020/12/17 10:43:31;;;;;;;6.10;1.50;;;;;;;8.96;100.00;101671.25;1812403;78;934602;-77
2020/12/17 10:46:00;;;;;;;8.03;1.80;;;;;;;9.00;100.00;101673.26;1798892;76;934594;-76
2020/12/17 10:48:30;;;;;;;5.90;1.83;;;;;;;9.10;100.00;101676.19;1811845;78;934718;-77
2020/12/17 10:51:00;;;;;;;7.90;1.90;;;;;;;9.18;100.00;101669.36;1799211;78;934655;-77
2020/12/17 10:53:30;;;;;;;11.47;2.00;;;;;;;9.13;100.00;101673.44;1811567;78;934650;-77
2020/12/17 10:56:00;;;;;;;5.57;1.67;;;;;;;9.28;100.00;101665.35;1799428;78;936763;-75
2020/12/17 10:58:30;;;;;;;10.10;2.03;;;;;;;9.27;100.00;101662.83;1811988;77;934642;-76
2020/12/17 11:01:00;;;;;;;8.93;2.10;;;;;;;9.45;100.00;101671.69;1800206;77;936743;-77
2020/12/17 11:03:29;;;;;;;6.97;1.60;;;;;;;9.44;100.00;101665.00;1811244;78;934764;-78
2020/12/17 11:05:59;;;;;;;10.20;2.13;;;;;;;9.46;100.00;101669.17;1798549;78;935193;-78
2020/12/17 11:08:29;;;;;;;7.63;1.80;;;;;;;9.46;100.00;101673.87;1811453;78;936723;-79
2020/12/17 11:10:59;;;;;;;8.23;1.80;;;;;;;9.56;100.00;101665.16;1798805;78;934630;-78
2020/12/17 11:13:29;;;;;;;7.47;2.63;;;;;;;9.58;100.00;101669.88;1810615;78;934704;-78
2020/12/17 11:15:59;;;;;;;7.67;2.27;;;;;;;9.51;100.00;101672.56;1800394;77;934658;-78
2020/12/17 11:18:29;;;;;;;7.90;1.97;;;;;;;9.71;100.00;101669.22;1811471;77;934596;-78
2020/12/17 11:20:58;;;;;;;10.97;2.50;;;;;;;9.76;100.00;101673.41;1799625;78;934623;-77
2020/12/17 11:23:28;;;;;;;10.90;2.07;;;;;;;9.76;100.00;101672.87;1811568;78;936930;-78
2020/12/17 11:25:58;;;;;;;10.53;2.40;;;;;;;9.75;100.00;101673.14;1799794;78;936781;-76
2020/12/17 11:28:28;;;;;;;8.40;1.57;;;;;;;9.86;100.00;101674.93;1811441;78;936701;-77
2020/12/17 11:30:59;;;;;;;8.37;1.70;;;;;;;9.94;100.00;101668.36;1799672;78;934593;-75